sensor_id;sensor_type;location;lat;lon;timestamp;pressure;altitude;pressure_sealevel;temperature
67501;BMP180;54349;52.528;19.760;2023-02-15T00:00:39;102375.40;;;21.90
67501;BMP180;54349;52.528;19.760;2023-02-15T00:03:26;102369.00;;;21.90
67501;BMP180;54349;52.528;19.760;2023-02-15T00:05:57;102369.60;;;21.90
67501;BMP180;54349;52.528;19.760;2023-02-15T00:08:25;102371.80;;;21.90
67501;BMP180;54349;52.528;19.760;2023-02-15T00:11:08;102369.60;;;21.90
67501;BMP180;54349;52.528;19.760;2023-02-15T00:13:36;102372.40;;;21.88
67501;BMP180;54349;52.528;19.760;2023-02-15T00:16:10;102368.60;;;21.80
67501;BMP180;54349;52.528;19.760;2023-02-15T00:18:39;102367.40;;;21.80
67501;BMP180;54349;52.528;19.760;2023-02-15T00:21:09;102368.00;;;21.80
67501;BMP180;54349;52.528;19.760;2023-02-15T00:23:37;102359.80;;;21.72
67501;BMP180;54349;52.528;19.760;2023-02-15T00:26:12;102362.00;;;21.70
67501;BMP180;54349;52.528;19.760;2023-02-15T00:28:40;102359.40;;;21.70
67501;BMP180;54349;52.528;19.760;2023-02-15T00:31:11;102357.60;;;21.68
67501;BMP180;54349;52.528;19.760;2023-02-15T00:33:40;102357.00;;;21.62
67501;BMP180;54349;52.528;19.760;2023-02-15T00:36:09;102351.00;;;21.60
67501;BMP180;54349;52.528;19.760;2023-02-15T00:38:38;102350.60;;;21.60
67501;BMP180;54349;52.528;19.760;2023-02-15T00:41:08;102349.20;;;21.52
67501;BMP180;54349;52.528;19.760;2023-02-15T00:43:37;102346.80;;;21.50
67501;BMP180;54349;52.528;19.760;2023-02-15T00:46:06;102338.80;;;21.50
67501;BMP180;54349;52.528;19.760;2023-02-15T00:48:34;102341.40;;;21.50
67501;BMP180;54349;52.528;19.760;2023-02-15T00:51:04;102334.00;;;21.42
67501;BMP180;54349;52.528;19.760;2023-02-15T00:53:32;102332.60;;;21.40
67501;BMP180;54349;52.528;19.760;2023-02-15T00:56:00;102329.20;;;21.40
67501;BMP180;54349;52.528;19.760;2023-02-15T00:58:29;102328.40;;;21.40
67501;BMP180;54349;52.528;19.760;2023-02-15T01:01:08;102330.40;;;21.32
67501;BMP180;54349;52.528;19.760;2023-02-15T01:03:37;102331.20;;;21.30
67501;BMP180;54349;52.528;19.760;2023-02-15T01:06:06;102325.00;;;21.30
67501;BMP180;54349;52.528;19.760;2023-02-15T01:08:34;102321.80;;;21.30
67501;BMP180;54349;52.528;19.760;2023-02-15T01:11:15;102319.40;;;21.26
67501;BMP180;54349;52.528;19.760;2023-02-15T01:13:54;102318.80;;;21.20
67501;BMP180;54349;52.528;19.760;2023-02-15T01:16:25;102314.00;;;21.20
67501;BMP180;54349;52.528;19.760;2023-02-15T01:18:55;102314.60;;;21.20
67501;BMP180;54349;52.528;19.760;2023-02-15T01:21:25;102313.00;;;21.20
67501;BMP180;54349;52.528;19.760;2023-02-15T01:23:53;102308.20;;;21.12
67501;BMP180;54349;52.528;19.760;2023-02-15T01:26:21;102309.40;;;21.10
67501;BMP180;54349;52.528;19.760;2023-02-15T01:28:49;102310.20;;;21.10
67501;BMP180;54349;52.528;19.760;2023-02-15T01:31:20;102308.00;;;21.10
67501;BMP180;54349;52.528;19.760;2023-02-15T01:33:49;102300.00;;;21.10
67501;BMP180;54349;52.528;19.760;2023-02-15T01:36:17;102299.00;;;21.00
67501;BMP180;54349;52.528;19.760;2023-02-15T01:38:46;102293.20;;;21.00
67501;BMP180;54349;52.528;19.760;2023-02-15T01:41:15;102295.00;;;21.00
67501;BMP180;54349;52.528;19.760;2023-02-15T01:43:57;102288.60;;;21.00
67501;BMP180;54349;52.528;19.760;2023-02-15T01:46:42;102291.40;;;20.96
67501;BMP180;54349;52.528;19.760;2023-02-15T01:49:19;102287.60;;;20.90
67501;BMP180;54349;52.528;19.760;2023-02-15T01:51:50;102286.80;;;20.90
67501;BMP180;54349;52.528;19.760;2023-02-15T01:54:32;102294.80;;;20.90
67501;BMP180;54349;52.528;19.760;2023-02-15T01:57:12;102293.20;;;20.90
67501;BMP180;54349;52.528;19.760;2023-02-15T01:59:46;102290.40;;;20.90
67501;BMP180;54349;52.528;19.760;2023-02-15T02:02:18;102290.80;;;20.80
67501;BMP180;54349;52.528;19.760;2023-02-15T02:04:52;102293.00;;;20.80
67501;BMP180;54349;52.528;19.760;2023-02-15T02:07:26;102291.60;;;20.80
67501;BMP180;54349;52.528;19.760;2023-02-15T02:09:55;102287.80;;;20.80
67501;BMP180;54349;52.528;19.760;2023-02-15T02:12:25;102290.00;;;20.80
67501;BMP180;54349;52.528;19.760;2023-02-15T02:14:54;102285.20;;;20.70
67501;BMP180;54349;52.528;19.760;2023-02-15T02:20:28;102278.00;;;20.70
67501;BMP180;54349;52.528;19.760;2023-02-15T02:35:44;102271.60;;;20.60
67501;BMP180;54349;52.528;19.760;2023-02-15T02:38:55;102265.60;;;20.60
67501;BMP180;54349;52.528;19.760;2023-02-15T02:41:49;102264.00;;;20.56
67501;BMP180;54349;52.528;19.760;2023-02-15T02:44:54;102261.00;;;20.50
67501;BMP180;54349;52.528;19.760;2023-02-15T02:47:33;102263.20;;;20.50
67501;BMP180;54349;52.528;19.760;2023-02-15T02:50:14;102269.00;;;20.50
67501;BMP180;54349;52.528;19.760;2023-02-15T02:52:48;102267.40;;;20.50
67501;BMP180;54349;52.528;19.760;2023-02-15T02:55:27;102263.40;;;20.50
67501;BMP180;54349;52.528;19.760;2023-02-15T03:01:03;102258.80;;;20.48
67501;BMP180;54349;52.528;19.760;2023-02-15T03:03:44;102259.20;;;20.42
67501;BMP180;54349;52.528;19.760;2023-02-15T03:06:46;102261.60;;;20.40
67501;BMP180;54349;52.528;19.760;2023-02-15T03:09:24;102261.20;;;20.40
67501;BMP180;54349;52.528;19.760;2023-02-15T03:11:53;102261.80;;;20.40
67501;BMP180;54349;52.528;19.760;2023-02-15T03:14:22;102265.00;;;20.40
67501;BMP180;54349;52.528;19.760;2023-02-15T03:16:51;102268.80;;;20.40
67501;BMP180;54349;52.528;19.760;2023-02-15T03:19:33;102266.60;;;20.38
67501;BMP180;54349;52.528;19.760;2023-02-15T03:22:33;102267.60;;;20.32
67501;BMP180;54349;52.528;19.760;2023-02-15T03:25:16;102266.80;;;20.30
67501;BMP180;54349;52.528;19.760;2023-02-15T03:27:49;102269.80;;;20.30
67501;BMP180;54349;52.528;19.760;2023-02-15T03:30:23;102265.00;;;20.30
67501;BMP180;54349;52.528;19.760;2023-02-15T03:32:58;102266.60;;;20.30
67501;BMP180;54349;52.528;19.760;2023-02-15T03:36:04;102265.40;;;20.30
67501;BMP180;54349;52.528;19.760;2023-02-15T03:39:13;102265.60;;;20.28
67501;BMP180;54349;52.528;19.760;2023-02-15T03:44:30;102259.40;;;20.20
67501;BMP180;54349;52.528;19.760;2023-02-15T03:47:09;102260.40;;;20.20
67501;BMP180;54349;52.528;19.760;2023-02-15T03:50:08;102260.40;;;20.20
67501;BMP180;54349;52.528;19.760;2023-02-15T03:52:59;102257.80;;;20.20
67501;BMP180;54349;52.528;19.760;2023-02-15T03:55:30;102255.80;;;20.20
67501;BMP180;54349;52.528;19.760;2023-02-15T03:57:59;102252.20;;;20.20
67501;BMP180;54349;52.528;19.760;2023-02-15T04:01:03;102252.40;;;20.20
67501;BMP180;54349;52.528;19.760;2023-02-15T04:04:01;102245.40;;;20.10
67501;BMP180;54349;52.528;19.760;2023-02-15T04:06:30;102238.20;;;20.10
67501;BMP180;54349;52.528;19.760;2023-02-15T04:08:59;102242.20;;;20.10
67501;BMP180;54349;52.528;19.760;2023-02-15T04:11:45;102239.40;;;20.10
67501;BMP180;54349;52.528;19.760;2023-02-15T04:14:13;102242.40;;;20.00
67501;BMP180;54349;52.528;19.760;2023-02-15T04:17:00;102238.40;;;20.00
67501;BMP180;54349;52.528;19.760;2023-02-15T04:19:29;102239.20;;;20.00
67501;BMP180;54349;52.528;19.760;2023-02-15T04:22:16;102239.20;;;20.00
67501;BMP180;54349;52.528;19.760;2023-02-15T04:25:03;102234.80;;;20.00
67501;BMP180;54349;52.528;19.760;2023-02-15T04:27:38;102238.00;;;19.98
67501;BMP180;54349;52.528;19.760;2023-02-15T04:30:09;102236.40;;;19.92
67501;BMP180;54349;52.528;19.760;2023-02-15T04:32:37;102232.00;;;19.90
67501;BMP180;54349;52.528;19.760;2023-02-15T04:35:07;102228.80;;;19.90
67501;BMP180;54349;52.528;19.760;2023-02-15T04:37:36;102224.80;;;19.90
67501;BMP180;54349;52.528;19.760;2023-02-15T04:40:07;102227.60;;;19.92
67501;BMP180;54349;52.528;19.760;2023-02-15T04:42:36;102225.00;;;20.00
67501;BMP180;54349;52.528;19.760;2023-02-15T04:45:05;102227.40;;;20.00
67501;BMP180;54349;52.528;19.760;2023-02-15T04:47:34;102233.80;;;20.20
67501;BMP180;54349;52.528;19.760;2023-02-15T04:50:03;102229.40;;;20.30
67501;BMP180;54349;52.528;19.760;2023-02-15T04:52:31;102229.80;;;20.40
67501;BMP180;54349;52.528;19.760;2023-02-15T04:55:00;102232.60;;;20.50
67501;BMP180;54349;52.528;19.760;2023-02-15T04:57:28;102234.60;;;20.60
67501;BMP180;54349;52.528;19.760;2023-02-15T04:59:56;102228.60;;;20.64
67501;BMP180;54349;52.528;19.760;2023-02-15T05:02:27;102230.20;;;20.70
67501;BMP180;54349;52.528;19.760;2023-02-15T05:04:55;102229.00;;;20.80
67501;BMP180;54349;52.528;19.760;2023-02-15T05:07:24;102229.60;;;20.86
67501;BMP180;54349;52.528;19.760;2023-02-15T05:09:53;102231.40;;;20.90
67501;BMP180;54349;52.528;19.760;2023-02-15T05:12:21;102226.60;;;21.00
67501;BMP180;54349;52.528;19.760;2023-02-15T05:14:49;102235.40;;;21.00
67501;BMP180;54349;52.528;19.760;2023-02-15T05:17:17;102237.40;;;21.10
67501;BMP180;54349;52.528;19.760;2023-02-15T05:19:46;102237.80;;;21.10
67501;BMP180;54349;52.528;19.760;2023-02-15T05:22:14;102243.00;;;21.20
67501;BMP180;54349;52.528;19.760;2023-02-15T05:24:42;102239.00;;;21.20
67501;BMP180;54349;52.528;19.760;2023-02-15T05:27:29;102247.00;;;21.28
67501;BMP180;54349;52.528;19.760;2023-02-15T05:30:16;102248.80;;;21.30
67501;BMP180;54349;52.528;19.760;2023-02-15T05:32:45;102249.20;;;21.30
67501;BMP180;54349;52.528;19.760;2023-02-15T05:35:15;102246.20;;;21.30
67501;BMP180;54349;52.528;19.760;2023-02-15T05:37:43;102246.20;;;21.26
67501;BMP180;54349;52.528;19.760;2023-02-15T05:40:12;102244.00;;;21.30
67501;BMP180;54349;52.528;19.760;2023-02-15T05:42:40;102245.00;;;21.40
67501;BMP180;54349;52.528;19.760;2023-02-15T05:45:08;102238.80;;;21.40
67501;BMP180;54349;52.528;19.760;2023-02-15T05:47:37;102242.00;;;21.40
67501;BMP180;54349;52.528;19.760;2023-02-15T05:50:06;102241.00;;;21.40
67501;BMP180;54349;52.528;19.760;2023-02-15T05:52:35;102237.80;;;21.50
67501;BMP180;54349;52.528;19.760;2023-02-15T05:55:05;102239.80;;;21.50
67501;BMP180;54349;52.528;19.760;2023-02-15T05:57:33;102240.80;;;21.58
67501;BMP180;54349;52.528;19.760;2023-02-15T06:00:05;102240.40;;;21.60
67501;BMP180;54349;52.528;19.760;2023-02-15T06:02:39;102240.60;;;21.60
67501;BMP180;54349;52.528;19.760;2023-02-15T06:05:08;102241.40;;;21.70
67501;BMP180;54349;52.528;19.760;2023-02-15T06:07:37;102240.80;;;21.70
67501;BMP180;54349;52.528;19.760;2023-02-15T06:10:06;102240.80;;;21.70
67501;BMP180;54349;52.528;19.760;2023-02-15T06:12:34;102243.20;;;21.70
67501;BMP180;54349;52.528;19.760;2023-02-15T06:15:03;102244.20;;;21.70
67501;BMP180;54349;52.528;19.760;2023-02-15T06:17:32;102244.00;;;21.78
67501;BMP180;54349;52.528;19.760;2023-02-15T06:20:00;102244.20;;;21.80
67501;BMP180;54349;52.528;19.760;2023-02-15T06:22:28;102246.00;;;21.70
67501;BMP180;54349;52.528;19.760;2023-02-15T06:24:56;102254.00;;;21.78
67501;BMP180;54349;52.528;19.760;2023-02-15T06:27:25;102256.60;;;21.80
67501;BMP180;54349;52.528;19.760;2023-02-15T06:29:55;102255.40;;;21.80
67501;BMP180;54349;52.528;19.760;2023-02-15T06:32:23;102257.60;;;21.80
67501;BMP180;54349;52.528;19.760;2023-02-15T06:34:51;102254.80;;;21.90
67501;BMP180;54349;52.528;19.760;2023-02-15T06:37:19;102256.00;;;21.90
67501;BMP180;54349;52.528;19.760;2023-02-15T06:39:47;102251.80;;;21.90
67501;BMP180;54349;52.528;19.760;2023-02-15T06:42:15;102252.80;;;21.90
67501;BMP180;54349;52.528;19.760;2023-02-15T06:44:45;102253.80;;;21.90
67501;BMP180;54349;52.528;19.760;2023-02-15T06:47:13;102258.20;;;21.90
67501;BMP180;54349;52.528;19.760;2023-02-15T06:49:41;102260.60;;;21.92
67501;BMP180;54349;52.528;19.760;2023-02-15T06:52:09;102253.40;;;21.96
67501;BMP180;54349;52.528;19.760;2023-02-15T06:54:40;102255.20;;;22.00
67501;BMP180;54349;52.528;19.760;2023-02-15T06:57:08;102253.60;;;22.00
67501;BMP180;54349;52.528;19.760;2023-02-15T06:59:37;102254.20;;;21.92
67501;BMP180;54349;52.528;19.760;2023-02-15T07:02:06;102251.80;;;21.90
67501;BMP180;54349;52.528;19.760;2023-02-15T07:04:34;102250.00;;;21.90
67501;BMP180;54349;52.528;19.760;2023-02-15T07:07:03;102254.80;;;21.96
67501;BMP180;54349;52.528;19.760;2023-02-15T07:09:31;102250.00;;;22.00
67501;BMP180;54349;52.528;19.760;2023-02-15T07:11:59;102246.20;;;22.00
67501;BMP180;54349;52.528;19.760;2023-02-15T07:14:46;102242.80;;;21.96
67501;BMP180;54349;52.528;19.760;2023-02-15T07:17:14;102240.60;;;22.00
67501;BMP180;54349;52.528;19.760;2023-02-15T07:20:12;102241.00;;;22.00
67501;BMP180;54349;52.528;19.760;2023-02-15T07:22:41;102236.60;;;22.00
67501;BMP180;54349;52.528;19.760;2023-02-15T07:25:11;102232.40;;;22.00
67501;BMP180;54349;52.528;19.760;2023-02-15T07:27:40;102232.80;;;22.00
67501;BMP180;54349;52.528;19.760;2023-02-15T07:30:12;102226.60;;;22.00
67501;BMP180;54349;52.528;19.760;2023-02-15T07:32:41;102221.80;;;22.04
67501;BMP180;54349;52.528;19.760;2023-02-15T07:35:53;102226.00;;;22.04
67501;BMP180;54349;52.528;19.760;2023-02-15T07:38:22;102223.60;;;22.10
67501;BMP180;54349;52.528;19.760;2023-02-15T07:40:51;102226.80;;;22.10
67501;BMP180;54349;52.528;19.760;2023-02-15T07:43:19;102225.00;;;22.10
67501;BMP180;54349;52.528;19.760;2023-02-15T07:45:46;102227.80;;;22.10
67501;BMP180;54349;52.528;19.760;2023-02-15T07:48:15;102222.40;;;22.10
67501;BMP180;54349;52.528;19.760;2023-02-15T07:50:43;102215.40;;;22.10
67501;BMP180;54349;52.528;19.760;2023-02-15T07:53:11;102222.60;;;22.10
67501;BMP180;54349;52.528;19.760;2023-02-15T07:55:39;102218.80;;;22.10
67501;BMP180;54349;52.528;19.760;2023-02-15T07:58:07;102214.00;;;22.10
67501;BMP180;54349;52.528;19.760;2023-02-15T08:00:35;102217.00;;;22.10
67501;BMP180;54349;52.528;19.760;2023-02-15T08:03:27;102216.80;;;22.12
67501;BMP180;54349;52.528;19.760;2023-02-15T08:05:58;102217.60;;;22.12
67501;BMP180;54349;52.528;19.760;2023-02-15T08:08:27;102213.40;;;22.10
67501;BMP180;54349;52.528;19.760;2023-02-15T08:10:59;102209.00;;;22.10
67501;BMP180;54349;52.528;19.760;2023-02-15T08:13:52;102204.20;;;22.10
67501;BMP180;54349;52.528;19.760;2023-02-15T08:18:54;102202.60;;;22.12
67501;BMP180;54349;52.528;19.760;2023-02-15T08:21:26;102195.20;;;22.14
67501;BMP180;54349;52.528;19.760;2023-02-15T08:23:56;102192.80;;;22.20
67501;BMP180;54349;52.528;19.760;2023-02-15T08:26:26;102188.60;;;22.20
67501;BMP180;54349;52.528;19.760;2023-02-15T08:28:56;102187.00;;;22.20
67501;BMP180;54349;52.528;19.760;2023-02-15T08:31:26;102183.20;;;22.20
67501;BMP180;54349;52.528;19.760;2023-02-15T08:33:56;102185.60;;;22.20
67501;BMP180;54349;52.528;19.760;2023-02-15T08:36:30;102181.80;;;22.20
67501;BMP180;54349;52.528;19.760;2023-02-15T08:39:02;102186.40;;;22.20
67501;BMP180;54349;52.528;19.760;2023-02-15T08:41:34;102179.20;;;22.20
67501;BMP180;54349;52.528;19.760;2023-02-15T08:44:08;102176.00;;;22.20
67501;BMP180;54349;52.528;19.760;2023-02-15T08:46:41;102172.80;;;22.20
67501;BMP180;54349;52.528;19.760;2023-02-15T08:49:17;102167.60;;;22.20
67501;BMP180;54349;52.528;19.760;2023-02-15T08:51:48;102166.40;;;22.20
67501;BMP180;54349;52.528;19.760;2023-02-15T08:54:21;102165.80;;;22.20
67501;BMP180;54349;52.528;19.760;2023-02-15T08:56:49;102168.00;;;22.20
67501;BMP180;54349;52.528;19.760;2023-02-15T08:59:22;102168.40;;;22.20
67501;BMP180;54349;52.528;19.760;2023-02-15T09:01:52;102165.40;;;22.20
67501;BMP180;54349;52.528;19.760;2023-02-15T09:04:21;102159.20;;;22.20
67501;BMP180;54349;52.528;19.760;2023-02-15T09:06:51;102162.20;;;22.20
67501;BMP180;54349;52.528;19.760;2023-02-15T09:09:20;102160.20;;;22.20
67501;BMP180;54349;52.528;19.760;2023-02-15T09:11:51;102156.80;;;22.20
67501;BMP180;54349;52.528;19.760;2023-02-15T09:14:27;102152.60;;;22.20
67501;BMP180;54349;52.528;19.760;2023-02-15T09:16:56;102153.00;;;22.20
67501;BMP180;54349;52.528;19.760;2023-02-15T09:19:24;102147.40;;;22.20
67501;BMP180;54349;52.528;19.760;2023-02-15T09:21:53;102146.60;;;22.20
67501;BMP180;54349;52.528;19.760;2023-02-15T09:24:22;102147.20;;;22.20
67501;BMP180;54349;52.528;19.760;2023-02-15T09:26:50;102146.60;;;22.20
67501;BMP180;54349;52.528;19.760;2023-02-15T09:29:19;102142.80;;;22.20
67501;BMP180;54349;52.528;19.760;2023-02-15T09:31:50;102143.00;;;22.10
67501;BMP180;54349;52.528;19.760;2023-02-15T09:34:21;102142.40;;;22.10
67501;BMP180;54349;52.528;19.760;2023-02-15T09:36:51;102138.00;;;22.12
67501;BMP180;54349;52.528;19.760;2023-02-15T09:39:25;102131.80;;;22.10
67501;BMP180;54349;52.528;19.760;2023-02-15T09:42:21;102131.40;;;22.10
67501;BMP180;54349;52.528;19.760;2023-02-15T09:45:22;102126.40;;;22.10
67501;BMP180;54349;52.528;19.760;2023-02-15T09:48:26;102131.60;;;22.10
67501;BMP180;54349;52.528;19.760;2023-02-15T09:51:22;102131.40;;;22.10
67501;BMP180;54349;52.528;19.760;2023-02-15T09:58:03;102132.80;;;22.10
67501;BMP180;54349;52.528;19.760;2023-02-15T10:16:34;102115.80;;;22.10
67501;BMP180;54349;52.528;19.760;2023-02-15T10:19:54;102111.20;;;22.12
67501;BMP180;54349;52.528;19.760;2023-02-15T10:34:16;102110.40;;;22.20
67501;BMP180;54349;52.528;19.760;2023-02-15T10:48:23;102099.60;;;22.20
67501;BMP180;54349;52.528;19.760;2023-02-15T10:51:02;102094.00;;;22.20
67501;BMP180;54349;52.528;19.760;2023-02-15T10:57:14;102093.80;;;22.20
67501;BMP180;54349;52.528;19.760;2023-02-15T11:00:27;102091.00;;;22.20
67501;BMP180;54349;52.528;19.760;2023-02-15T11:06:11;102086.80;;;22.20
67501;BMP180;54349;52.528;19.760;2023-02-15T11:08:46;102085.20;;;22.20
67501;BMP180;54349;52.528;19.760;2023-02-15T11:11:26;102086.60;;;22.20
67501;BMP180;54349;52.528;19.760;2023-02-15T11:14:20;102078.80;;;22.20
67501;BMP180;54349;52.528;19.760;2023-02-15T11:17:02;102076.00;;;22.20
67501;BMP180;54349;52.528;19.760;2023-02-15T11:19:38;102077.80;;;22.20
67501;BMP180;54349;52.528;19.760;2023-02-15T11:22:10;102077.20;;;22.20
67501;BMP180;54349;52.528;19.760;2023-02-15T11:24:44;102070.80;;;22.20
67501;BMP180;54349;52.528;19.760;2023-02-15T11:27:31;102069.00;;;22.20
67501;BMP180;54349;52.528;19.760;2023-02-15T11:30:13;102061.40;;;22.20
67501;BMP180;54349;52.528;19.760;2023-02-15T11:32:50;102062.00;;;22.20
67501;BMP180;54349;52.528;19.760;2023-02-15T11:35:37;102056.40;;;22.20
67501;BMP180;54349;52.528;19.760;2023-02-15T11:38:23;102052.00;;;22.20
67501;BMP180;54349;52.528;19.760;2023-02-15T11:40:59;102048.00;;;22.22
67501;BMP180;54349;52.528;19.760;2023-02-15T11:44:25;102044.20;;;22.22
67501;BMP180;54349;52.528;19.760;2023-02-15T11:46:26;102045.20;;;22.22
67501;BMP180;54349;52.528;19.760;2023-02-15T11:48:55;102046.40;;;22.20
67501;BMP180;54349;52.528;19.760;2023-02-15T11:51:25;102042.80;;;22.20
67501;BMP180;54349;52.528;19.760;2023-02-15T11:53:56;102036.60;;;22.20
67501;BMP180;54349;52.528;19.760;2023-02-15T11:56:25;102033.60;;;22.20
67501;BMP180;54349;52.528;19.760;2023-02-15T11:59:09;102033.40;;;22.22
67501;BMP180;54349;52.528;19.760;2023-02-15T12:01:45;102027.60;;;22.24
67501;BMP180;54349;52.528;19.760;2023-02-15T12:04:33;102019.80;;;22.20
67501;BMP180;54349;52.528;19.760;2023-02-15T12:07:29;102019.20;;;22.20
67501;BMP180;54349;52.528;19.760;2023-02-15T12:15:41;102019.20;;;22.22
67501;BMP180;54349;52.528;19.760;2023-02-15T12:18:39;102014.40;;;22.20
67501;BMP180;54349;52.528;19.760;2023-02-15T12:21:30;102013.80;;;22.20
67501;BMP180;54349;52.528;19.760;2023-02-15T12:24:22;102012.60;;;22.20
67501;BMP180;54349;52.528;19.760;2023-02-15T12:27:14;102013.00;;;22.20
67501;BMP180;54349;52.528;19.760;2023-02-15T12:29:51;102010.60;;;22.20
67501;BMP180;54349;52.528;19.760;2023-02-15T12:32:27;102012.00;;;22.20
67501;BMP180;54349;52.528;19.760;2023-02-15T12:35:09;102010.20;;;22.20
67501;BMP180;54349;52.528;19.760;2023-02-15T12:37:54;102004.20;;;22.20
67501;BMP180;54349;52.528;19.760;2023-02-15T12:40:27;101996.20;;;22.20
67501;BMP180;54349;52.528;19.760;2023-02-15T12:42:59;101991.80;;;22.20
67501;BMP180;54349;52.528;19.760;2023-02-15T12:45:32;101991.60;;;22.20
67501;BMP180;54349;52.528;19.760;2023-02-15T12:50:43;101986.40;;;22.20
67501;BMP180;54349;52.528;19.760;2023-02-15T12:53:19;101979.80;;;22.20
67501;BMP180;54349;52.528;19.760;2023-02-15T12:55:58;101975.40;;;22.20
67501;BMP180;54349;52.528;19.760;2023-02-15T12:58:29;101969.80;;;22.12
67501;BMP180;54349;52.528;19.760;2023-02-15T13:01:19;101964.20;;;22.14
67501;BMP180;54349;52.528;19.760;2023-02-15T13:04:13;101969.20;;;22.16
67501;BMP180;54349;52.528;19.760;2023-02-15T13:06:50;101966.00;;;22.20
67501;BMP180;54349;52.528;19.760;2023-02-15T13:09:39;101962.40;;;22.14
67501;BMP180;54349;52.528;19.760;2023-02-15T13:12:25;101967.00;;;22.12
67501;BMP180;54349;52.528;19.760;2023-02-15T13:14:59;101958.80;;;22.10
67501;BMP180;54349;52.528;19.760;2023-02-15T13:17:32;101959.20;;;22.12
67501;BMP180;54349;52.528;19.760;2023-02-15T13:20:13;101965.60;;;22.14
67501;BMP180;54349;52.528;19.760;2023-02-15T13:22:46;101962.20;;;22.14
67501;BMP180;54349;52.528;19.760;2023-02-15T13:25:19;101959.60;;;22.10
67501;BMP180;54349;52.528;19.760;2023-02-15T13:27:57;101951.40;;;22.10
67501;BMP180;54349;52.528;19.760;2023-02-15T13:30:43;101946.20;;;22.10
67501;BMP180;54349;52.528;19.760;2023-02-15T13:38:52;101943.40;;;22.18
67501;BMP180;54349;52.528;19.760;2023-02-15T14:04:37;101929.60;;;22.00
67501;BMP180;54349;52.528;19.760;2023-02-15T14:10:39;101924.20;;;22.00
67501;BMP180;54349;52.528;19.760;2023-02-15T14:19:40;101919.80;;;21.74
67501;BMP180;54349;52.528;19.760;2023-02-15T14:22:40;101920.40;;;21.70
67501;BMP180;54349;52.528;19.760;2023-02-15T14:25:33;101917.00;;;21.70
67501;BMP180;54349;52.528;19.760;2023-02-15T14:28:14;101913.00;;;21.70
67501;BMP180;54349;52.528;19.760;2023-02-15T14:30:50;101914.60;;;21.80
67501;BMP180;54349;52.528;19.760;2023-02-15T14:33:31;101913.80;;;21.80
67501;BMP180;54349;52.528;19.760;2023-02-15T14:36:06;101916.20;;;21.84
67501;BMP180;54349;52.528;19.760;2023-02-15T14:41:49;101908.20;;;21.90
67501;BMP180;54349;52.528;19.760;2023-02-15T14:44:32;101909.60;;;21.90
67501;BMP180;54349;52.528;19.760;2023-02-15T14:49:47;101912.80;;;22.00
67501;BMP180;54349;52.528;19.760;2023-02-15T14:52:15;101910.00;;;22.00
67501;BMP180;54349;52.528;19.760;2023-02-15T15:05:10;101898.00;;;22.10
67501;BMP180;54349;52.528;19.760;2023-02-15T15:16:50;101880.80;;;22.10
67501;BMP180;54349;52.528;19.760;2023-02-15T15:22:26;101880.40;;;22.14
67501;BMP180;54349;52.528;19.760;2023-02-15T15:25:01;101881.20;;;22.12
67501;BMP180;54349;52.528;19.760;2023-02-15T15:36:07;101873.80;;;22.00
67501;BMP180;54349;52.528;19.760;2023-02-15T15:50:00;101851.40;;;21.90
67501;BMP180;54349;52.528;19.760;2023-02-15T15:52:29;101847.00;;;21.90
67501;BMP180;54349;52.528;19.760;2023-02-15T15:55:15;101843.60;;;21.96
67501;BMP180;54349;52.528;19.760;2023-02-15T15:57:50;101842.20;;;22.00
67501;BMP180;54349;52.528;19.760;2023-02-15T16:03:01;101839.40;;;22.00
67501;BMP180;54349;52.528;19.760;2023-02-15T16:05:37;101839.40;;;22.00
67501;BMP180;54349;52.528;19.760;2023-02-15T16:08:06;101830.20;;;22.02
67501;BMP180;54349;52.528;19.760;2023-02-15T16:10:35;101826.00;;;22.08
67501;BMP180;54349;52.528;19.760;2023-02-15T16:13:06;101822.80;;;22.02
67501;BMP180;54349;52.528;19.760;2023-02-15T16:15:42;101822.20;;;21.92
67501;BMP180;54349;52.528;19.760;2023-02-15T16:18:16;101813.80;;;21.80
67501;BMP180;54349;52.528;19.760;2023-02-15T16:21:04;101812.80;;;21.70
67501;BMP180;54349;52.528;19.760;2023-02-15T16:28:58;101809.20;;;21.60
67501;BMP180;54349;52.528;19.760;2023-02-15T16:31:27;101815.60;;;21.52
67501;BMP180;54349;52.528;19.760;2023-02-15T16:33:55;101811.80;;;21.50
67501;BMP180;54349;52.528;19.760;2023-02-15T16:36:27;101815.40;;;21.50
67501;BMP180;54349;52.528;19.760;2023-02-15T16:41:28;101806.80;;;21.50
67501;BMP180;54349;52.528;19.760;2023-02-15T16:44:09;101805.40;;;21.60
67501;BMP180;54349;52.528;19.760;2023-02-15T16:46:44;101803.20;;;21.70
67501;BMP180;54349;52.528;19.760;2023-02-15T16:49:25;101801.80;;;21.76
67501;BMP180;54349;52.528;19.760;2023-02-15T16:52:04;101797.40;;;21.80
67501;BMP180;54349;52.528;19.760;2023-02-15T16:54:35;101795.60;;;21.78
67501;BMP180;54349;52.528;19.760;2023-02-15T16:57:04;101794.40;;;21.80
67501;BMP180;54349;52.528;19.760;2023-02-15T16:59:41;101796.60;;;21.80
67501;BMP180;54349;52.528;19.760;2023-02-15T17:02:29;101792.80;;;21.88
67501;BMP180;54349;52.528;19.760;2023-02-15T17:05:20;101791.40;;;21.90
67501;BMP180;54349;52.528;19.760;2023-02-15T17:10:42;101787.80;;;21.92
67501;BMP180;54349;52.528;19.760;2023-02-15T17:13:15;101786.40;;;21.98
67501;BMP180;54349;52.528;19.760;2023-02-15T17:18:33;101788.60;;;21.90
67501;BMP180;54349;52.528;19.760;2023-02-15T17:21:13;101787.20;;;21.90
67501;BMP180;54349;52.528;19.760;2023-02-15T17:23:56;101788.20;;;21.90
67501;BMP180;54349;52.528;19.760;2023-02-15T17:26:31;101787.20;;;21.92
67501;BMP180;54349;52.528;19.760;2023-02-15T17:29:37;101782.80;;;21.98
67501;BMP180;54349;52.528;19.760;2023-02-15T17:32:17;101787.60;;;22.00
67501;BMP180;54349;52.528;19.760;2023-02-15T17:34:50;101791.20;;;22.00